Decoded Metar for FKKR (GAROUA in CAMEROON) (IATA:GOU) | Meteo·Mobile Aviation Weather
aviador You're here:

FKKR Decoded Metar

GAROUA in CAMEROON
Report Time2020-01-18 07:00:00
UTC Time2020-01-18 08:14:18
Flight Rules Old
WindCalm
Visibility1200 m
Phenomena:Widespread Dust
Clouds:N/A
Expected CloudBase > 3,600 ft AGL from Temp-Dew spread
CeilingNone
Temp19°C (ISA +6)
Dew Point10°C (56% RH)
QNH1017 hPa
Density Alt1,490 ft
Elevation801 ft
Report Wrong Elevation
Raw Report
FKKR 180700Z 00000KT 1200 R09/2000 DU NSC 19/10 Q1017 NOSIG=

Extra information for FKKR:More info

Metar Taf Metar & Taf Last 4 Metars F.Rules Stats Wind Profile Meteogram Temp Stats Airport Information Weather charts Add Link Nearby VenuesMetar ALERT Operation Metar Decoded Social comments